sensor_id;sensor_type;location;lat;lon;timestamp;P1;durP1;ratioP1;P2;durP2;ratioP2
18196;SDS011;9224;52.422;13.024;2024-01-11T00:02:10;220.73;;;133.50;;
18196;SDS011;9224;52.422;13.024;2024-01-11T00:04:37;207.67;;;131.20;;
18196;SDS011;9224;52.422;13.024;2024-01-11T00:07:05;205.07;;;131.27;;
18196;SDS011;9224;52.422;13.024;2024-01-11T00:09:32;204.10;;;128.83;;
18196;SDS011;9224;52.422;13.024;2024-01-11T00:11:58;203.00;;;129.47;;
18196;SDS011;9224;52.422;13.024;2024-01-11T00:14:25;205.73;;;128.27;;
18196;SDS011;9224;52.422;13.024;2024-01-11T00:16:52;205.67;;;128.60;;
18196;SDS011;9224;52.422;13.024;2024-01-11T00:19:19;205.27;;;130.23;;
18196;SDS011;9224;52.422;13.024;2024-01-11T00:21:46;203.80;;;130.10;;
18196;SDS011;9224;52.422;13.024;2024-01-11T00:24:13;199.70;;;127.80;;
18196;SDS011;9224;52.422;13.024;2024-01-11T00:26:40;201.87;;;128.03;;
18196;SDS011;9224;52.422;13.024;2024-01-11T00:29:07;200.10;;;128.23;;
18196;SDS011;9224;52.422;13.024;2024-01-11T00:31:34;202.70;;;129.77;;
18196;SDS011;9224;52.422;13.024;2024-01-11T00:34:00;210.43;;;129.60;;
18196;SDS011;9224;52.422;13.024;2024-01-11T00:36:28;198.60;;;128.60;;
18196;SDS011;9224;52.422;13.024;2024-01-11T00:38:55;198.13;;;126.63;;
18196;SDS011;9224;52.422;13.024;2024-01-11T00:41:22;200.43;;;126.53;;
18196;SDS011;9224;52.422;13.024;2024-01-11T00:43:49;195.20;;;125.83;;
18196;SDS011;9224;52.422;13.024;2024-01-11T00:46:15;196.00;;;125.77;;
18196;SDS011;9224;52.422;13.024;2024-01-11T00:48:42;197.93;;;127.37;;
18196;SDS011;9224;52.422;13.024;2024-01-11T00:51:09;200.00;;;128.10;;
18196;SDS011;9224;52.422;13.024;2024-01-11T00:53:37;198.53;;;126.37;;
18196;SDS011;9224;52.422;13.024;2024-01-11T00:56:04;195.57;;;124.73;;
18196;SDS011;9224;52.422;13.024;2024-01-11T00:58:31;193.87;;;125.13;;
18196;SDS011;9224;52.422;13.024;2024-01-11T01:00:57;191.60;;;122.90;;
18196;SDS011;9224;52.422;13.024;2024-01-11T01:03:24;192.27;;;124.83;;
18196;SDS011;9224;52.422;13.024;2024-01-11T01:05:51;195.20;;;125.20;;
18196;SDS011;9224;52.422;13.024;2024-01-11T01:08:18;194.87;;;126.13;;
18196;SDS011;9224;52.422;13.024;2024-01-11T01:10:46;193.93;;;124.27;;
18196;SDS011;9224;52.422;13.024;2024-01-11T01:13:13;201.43;;;126.70;;
18196;SDS011;9224;52.422;13.024;2024-01-11T01:15:39;200.03;;;126.40;;
18196;SDS011;9224;52.422;13.024;2024-01-11T01:18:06;191.30;;;123.37;;
18196;SDS011;9224;52.422;13.024;2024-01-11T01:20:32;193.67;;;124.03;;
18196;SDS011;9224;52.422;13.024;2024-01-11T01:22:59;192.07;;;123.43;;
18196;SDS011;9224;52.422;13.024;2024-01-11T01:25:26;192.97;;;124.70;;
18196;SDS011;9224;52.422;13.024;2024-01-11T01:27:54;198.00;;;126.50;;
18196;SDS011;9224;52.422;13.024;2024-01-11T01:30:21;203.50;;;126.73;;
18196;SDS011;9224;52.422;13.024;2024-01-11T01:32:48;198.67;;;126.93;;
18196;SDS011;9224;52.422;13.024;2024-01-11T01:35:15;199.77;;;124.90;;
18196;SDS011;9224;52.422;13.024;2024-01-11T01:37:42;202.37;;;126.63;;
18196;SDS011;9224;52.422;13.024;2024-01-11T01:40:09;210.70;;;128.63;;
18196;SDS011;9224;52.422;13.024;2024-01-11T01:42:40;216.10;;;130.73;;
18196;SDS011;9224;52.422;13.024;2024-01-11T01:45:09;225.87;;;133.43;;
18196;SDS011;9224;52.422;13.024;2024-01-11T01:47:36;226.80;;;133.50;;
18196;SDS011;9224;52.422;13.024;2024-01-11T01:50:03;230.17;;;136.77;;
18196;SDS011;9224;52.422;13.024;2024-01-11T01:52:31;226.43;;;133.20;;
18196;SDS011;9224;52.422;13.024;2024-01-11T01:54:58;237.83;;;135.80;;
18196;SDS011;9224;52.422;13.024;2024-01-11T01:57:25;225.67;;;133.70;;
18196;SDS011;9224;52.422;13.024;2024-01-11T01:59:52;228.13;;;132.80;;
18196;SDS011;9224;52.422;13.024;2024-01-11T02:02:20;222.20;;;131.53;;
18196;SDS011;9224;52.422;13.024;2024-01-11T02:04:47;219.40;;;132.10;;
18196;SDS011;9224;52.422;13.024;2024-01-11T02:07:14;220.27;;;130.70;;
18196;SDS011;9224;52.422;13.024;2024-01-11T02:09:40;209.73;;;128.93;;
18196;SDS011;9224;52.422;13.024;2024-01-11T02:12:07;210.53;;;128.43;;
18196;SDS011;9224;52.422;13.024;2024-01-11T02:14:36;217.80;;;129.63;;
18196;SDS011;9224;52.422;13.024;2024-01-11T02:17:03;211.97;;;127.50;;
18196;SDS011;9224;52.422;13.024;2024-01-11T02:19:31;209.67;;;128.50;;
18196;SDS011;9224;52.422;13.024;2024-01-11T02:22:00;201.17;;;125.73;;
18196;SDS011;9224;52.422;13.024;2024-01-11T02:24:40;190.40;;;122.90;;
18196;SDS011;9224;52.422;13.024;2024-01-11T02:27:07;191.90;;;123.90;;
18196;SDS011;9224;52.422;13.024;2024-01-11T02:29:35;194.13;;;124.27;;
18196;SDS011;9224;52.422;13.024;2024-01-11T02:32:02;194.80;;;123.67;;
18196;SDS011;9224;52.422;13.024;2024-01-11T02:34:30;188.27;;;122.07;;
18196;SDS011;9224;52.422;13.024;2024-01-11T02:36:56;185.93;;;121.27;;
18196;SDS011;9224;52.422;13.024;2024-01-11T02:39:23;184.67;;;121.97;;
18196;SDS011;9224;52.422;13.024;2024-01-11T02:41:56;184.13;;;121.70;;
18196;SDS011;9224;52.422;13.024;2024-01-11T02:44:23;182.97;;;120.93;;
18196;SDS011;9224;52.422;13.024;2024-01-11T02:46:50;175.60;;;118.50;;
18196;SDS011;9224;52.422;13.024;2024-01-11T02:49:17;170.37;;;115.03;;
18196;SDS011;9224;52.422;13.024;2024-01-11T02:51:44;165.57;;;113.60;;
18196;SDS011;9224;52.422;13.024;2024-01-11T02:54:10;165.67;;;113.33;;
18196;SDS011;9224;52.422;13.024;2024-01-11T02:56:37;164.57;;;113.80;;
18196;SDS011;9224;52.422;13.024;2024-01-11T02:59:05;165.30;;;112.87;;
18196;SDS011;9224;52.422;13.024;2024-01-11T03:01:32;159.60;;;109.87;;
18196;SDS011;9224;52.422;13.024;2024-01-11T03:03:58;157.60;;;110.20;;
18196;SDS011;9224;52.422;13.024;2024-01-11T03:06:25;166.73;;;109.03;;
18196;SDS011;9224;52.422;13.024;2024-01-11T03:08:52;164.60;;;108.23;;
18196;SDS011;9224;52.422;13.024;2024-01-11T03:11:19;158.10;;;108.23;;
18196;SDS011;9224;52.422;13.024;2024-01-11T03:13:45;154.00;;;108.57;;
18196;SDS011;9224;52.422;13.024;2024-01-11T03:16:13;153.97;;;108.00;;
18196;SDS011;9224;52.422;13.024;2024-01-11T03:18:40;159.57;;;108.27;;
18196;SDS011;9224;52.422;13.024;2024-01-11T03:21:07;157.47;;;108.97;;
18196;SDS011;9224;52.422;13.024;2024-01-11T03:23:33;153.07;;;107.73;;
18196;SDS011;9224;52.422;13.024;2024-01-11T03:26:00;155.67;;;109.67;;
18196;SDS011;9224;52.422;13.024;2024-01-11T03:28:27;154.97;;;109.13;;
18196;SDS011;9224;52.422;13.024;2024-01-11T03:30:53;152.50;;;107.43;;
18196;SDS011;9224;52.422;13.024;2024-01-11T03:33:21;156.97;;;107.90;;
18196;SDS011;9224;52.422;13.024;2024-01-11T03:35:48;151.77;;;107.67;;
18196;SDS011;9224;52.422;13.024;2024-01-11T03:38:15;150.07;;;106.27;;
18196;SDS011;9224;52.422;13.024;2024-01-11T03:40:41;150.50;;;106.73;;
18196;SDS011;9224;52.422;13.024;2024-01-11T03:43:08;152.33;;;106.43;;
18196;SDS011;9224;52.422;13.024;2024-01-11T03:45:35;151.33;;;107.03;;
18196;SDS011;9224;52.422;13.024;2024-01-11T03:48:01;151.43;;;107.90;;
18196;SDS011;9224;52.422;13.024;2024-01-11T03:50:30;151.30;;;107.53;;
18196;SDS011;9224;52.422;13.024;2024-01-11T03:52:57;151.80;;;107.00;;
18196;SDS011;9224;52.422;13.024;2024-01-11T03:55:23;154.27;;;108.43;;
18196;SDS011;9224;52.422;13.024;2024-01-11T03:57:50;155.00;;;107.77;;
18196;SDS011;9224;52.422;13.024;2024-01-11T04:00:17;156.37;;;108.17;;
18196;SDS011;9224;52.422;13.024;2024-01-11T04:02:44;156.03;;;108.60;;
18196;SDS011;9224;52.422;13.024;2024-01-11T04:05:11;155.77;;;108.20;;
18196;SDS011;9224;52.422;13.024;2024-01-11T04:07:39;154.77;;;107.50;;
18196;SDS011;9224;52.422;13.024;2024-01-11T04:10:06;163.03;;;108.83;;
18196;SDS011;9224;52.422;13.024;2024-01-11T04:12:34;159.23;;;109.13;;
18196;SDS011;9224;52.422;13.024;2024-01-11T04:15:01;158.80;;;108.77;;
18196;SDS011;9224;52.422;13.024;2024-01-11T04:17:28;158.53;;;108.67;;
18196;SDS011;9224;52.422;13.024;2024-01-11T04:19:55;159.97;;;108.60;;
18196;SDS011;9224;52.422;13.024;2024-01-11T04:22:22;156.80;;;107.67;;
18196;SDS011;9224;52.422;13.024;2024-01-11T04:24:50;158.87;;;108.93;;
18196;SDS011;9224;52.422;13.024;2024-01-11T04:27:17;159.20;;;108.93;;
18196;SDS011;9224;52.422;13.024;2024-01-11T04:29:44;165.10;;;109.23;;
18196;SDS011;9224;52.422;13.024;2024-01-11T04:32:10;168.10;;;110.43;;
18196;SDS011;9224;52.422;13.024;2024-01-11T04:34:37;158.73;;;108.90;;
18196;SDS011;9224;52.422;13.024;2024-01-11T04:37:04;158.00;;;108.47;;
18196;SDS011;9224;52.422;13.024;2024-01-11T04:39:32;160.83;;;108.40;;
18196;SDS011;9224;52.422;13.024;2024-01-11T04:42:00;158.53;;;108.80;;
18196;SDS011;9224;52.422;13.024;2024-01-11T04:44:27;160.73;;;109.10;;
18196;SDS011;9224;52.422;13.024;2024-01-11T04:46:53;158.60;;;108.73;;
18196;SDS011;9224;52.422;13.024;2024-01-11T04:49:20;164.60;;;109.57;;
18196;SDS011;9224;52.422;13.024;2024-01-11T04:51:47;161.17;;;109.20;;
18196;SDS011;9224;52.422;13.024;2024-01-11T04:54:14;165.87;;;110.60;;
18196;SDS011;9224;52.422;13.024;2024-01-11T04:56:40;161.17;;;109.20;;
18196;SDS011;9224;52.422;13.024;2024-01-11T04:59:08;159.27;;;108.40;;
18196;SDS011;9224;52.422;13.024;2024-01-11T05:01:35;165.67;;;109.23;;
18196;SDS011;9224;52.422;13.024;2024-01-11T05:04:02;160.27;;;109.07;;
18196;SDS011;9224;52.422;13.024;2024-01-11T05:06:28;165.57;;;109.90;;
18196;SDS011;9224;52.422;13.024;2024-01-11T05:08:55;161.20;;;109.60;;
18196;SDS011;9224;52.422;13.024;2024-01-11T05:11:22;163.90;;;110.63;;
18196;SDS011;9224;52.422;13.024;2024-01-11T05:13:49;170.37;;;111.07;;
18196;SDS011;9224;52.422;13.024;2024-01-11T05:16:22;162.27;;;110.07;;
18196;SDS011;9224;52.422;13.024;2024-01-11T05:18:49;169.00;;;110.20;;
18196;SDS011;9224;52.422;13.024;2024-01-11T05:21:17;197.53;;;109.90;;
18196;SDS011;9224;52.422;13.024;2024-01-11T05:23:43;167.90;;;110.03;;
18196;SDS011;9224;52.422;13.024;2024-01-11T05:26:10;165.77;;;110.30;;
18196;SDS011;9224;52.422;13.024;2024-01-11T05:28:37;168.23;;;111.43;;
18196;SDS011;9224;52.422;13.024;2024-01-11T05:31:05;167.37;;;110.83;;
18196;SDS011;9224;52.422;13.024;2024-01-11T05:33:33;175.20;;;112.10;;
18196;SDS011;9224;52.422;13.024;2024-01-11T05:35:59;169.47;;;111.67;;
18196;SDS011;9224;52.422;13.024;2024-01-11T05:38:26;170.20;;;110.97;;
18196;SDS011;9224;52.422;13.024;2024-01-11T05:40:53;175.47;;;111.90;;
18196;SDS011;9224;52.422;13.024;2024-01-11T05:43:19;167.40;;;110.90;;
18196;SDS011;9224;52.422;13.024;2024-01-11T05:45:47;167.87;;;110.63;;
18196;SDS011;9224;52.422;13.024;2024-01-11T05:48:14;168.47;;;110.80;;
18196;SDS011;9224;52.422;13.024;2024-01-11T05:50:43;172.03;;;111.53;;
18196;SDS011;9224;52.422;13.024;2024-01-11T05:53:09;169.50;;;111.73;;
18196;SDS011;9224;52.422;13.024;2024-01-11T05:55:36;176.67;;;112.20;;
18196;SDS011;9224;52.422;13.024;2024-01-11T05:58:03;177.90;;;112.93;;
18196;SDS011;9224;52.422;13.024;2024-01-11T06:00:29;177.53;;;112.67;;
18196;SDS011;9224;52.422;13.024;2024-01-11T06:02:56;177.27;;;113.00;;
18196;SDS011;9224;52.422;13.024;2024-01-11T06:05:23;178.53;;;114.53;;
18196;SDS011;9224;52.422;13.024;2024-01-11T06:07:51;180.10;;;113.40;;
18196;SDS011;9224;52.422;13.024;2024-01-11T06:10:17;180.43;;;111.70;;
18196;SDS011;9224;52.422;13.024;2024-01-11T06:12:44;179.50;;;112.90;;
18196;SDS011;9224;52.422;13.024;2024-01-11T06:15:10;171.10;;;110.47;;
18196;SDS011;9224;52.422;13.024;2024-01-11T06:17:37;178.20;;;113.57;;
18196;SDS011;9224;52.422;13.024;2024-01-11T06:20:04;174.50;;;111.20;;
18196;SDS011;9224;52.422;13.024;2024-01-11T06:22:31;168.97;;;111.03;;
18196;SDS011;9224;52.422;13.024;2024-01-11T06:25:00;175.40;;;113.03;;
18196;SDS011;9224;52.422;13.024;2024-01-11T06:27:26;171.83;;;112.33;;
18196;SDS011;9224;52.422;13.024;2024-01-11T06:29:53;174.60;;;111.80;;
18196;SDS011;9224;52.422;13.024;2024-01-11T06:32:19;169.83;;;111.33;;
18196;SDS011;9224;52.422;13.024;2024-01-11T06:34:46;175.47;;;113.80;;
18196;SDS011;9224;52.422;13.024;2024-01-11T06:37:13;169.67;;;111.47;;
18196;SDS011;9224;52.422;13.024;2024-01-11T06:39:39;174.77;;;112.60;;
18196;SDS011;9224;52.422;13.024;2024-01-11T06:42:08;168.80;;;110.43;;
18196;SDS011;9224;52.422;13.024;2024-01-11T06:44:34;173.23;;;112.27;;
18196;SDS011;9224;52.422;13.024;2024-01-11T06:47:01;169.90;;;111.43;;
18196;SDS011;9224;52.422;13.024;2024-01-11T06:49:30;170.90;;;112.70;;
18196;SDS011;9224;52.422;13.024;2024-01-11T06:51:57;173.60;;;111.43;;
18196;SDS011;9224;52.422;13.024;2024-01-11T06:54:23;186.80;;;114.97;;
18196;SDS011;9224;52.422;13.024;2024-01-11T06:56:50;174.80;;;112.10;;
18196;SDS011;9224;52.422;13.024;2024-01-11T06:59:18;168.63;;;111.47;;
18196;SDS011;9224;52.422;13.024;2024-01-11T07:01:45;172.07;;;112.40;;
18196;SDS011;9224;52.422;13.024;2024-01-11T07:04:12;176.90;;;112.87;;
18196;SDS011;9224;52.422;13.024;2024-01-11T07:06:38;175.67;;;112.83;;
18196;SDS011;9224;52.422;13.024;2024-01-11T07:09:05;179.03;;;112.17;;
18196;SDS011;9224;52.422;13.024;2024-01-11T07:11:32;173.33;;;111.93;;
18196;SDS011;9224;52.422;13.024;2024-01-11T07:13:58;177.30;;;113.87;;
18196;SDS011;9224;52.422;13.024;2024-01-11T07:16:26;176.47;;;113.30;;
18196;SDS011;9224;52.422;13.024;2024-01-11T07:18:53;176.17;;;113.67;;
18196;SDS011;9224;52.422;13.024;2024-01-11T07:21:21;175.33;;;112.80;;
18196;SDS011;9224;52.422;13.024;2024-01-11T07:23:54;173.30;;;113.00;;
18196;SDS011;9224;52.422;13.024;2024-01-11T07:26:21;178.47;;;114.37;;
18196;SDS011;9224;52.422;13.024;2024-01-11T07:28:48;178.93;;;114.27;;
18196;SDS011;9224;52.422;13.024;2024-01-11T07:31:15;181.90;;;114.53;;
18196;SDS011;9224;52.422;13.024;2024-01-11T07:33:43;181.60;;;114.90;;
18196;SDS011;9224;52.422;13.024;2024-01-11T07:36:10;182.20;;;114.53;;
18196;SDS011;9224;52.422;13.024;2024-01-11T07:38:37;178.83;;;114.70;;
18196;SDS011;9224;52.422;13.024;2024-01-11T07:41:03;185.60;;;115.67;;
18196;SDS011;9224;52.422;13.024;2024-01-11T07:43:30;178.60;;;114.40;;
18196;SDS011;9224;52.422;13.024;2024-01-11T07:46:00;185.20;;;115.97;;
18196;SDS011;9224;52.422;13.024;2024-01-11T07:48:27;177.93;;;114.40;;
18196;SDS011;9224;52.422;13.024;2024-01-11T07:50:55;183.33;;;115.33;;
18196;SDS011;9224;52.422;13.024;2024-01-11T07:53:21;179.37;;;114.83;;
18196;SDS011;9224;52.422;13.024;2024-01-11T07:55:48;181.63;;;114.30;;
18196;SDS011;9224;52.422;13.024;2024-01-11T07:58:16;181.83;;;114.53;;
18196;SDS011;9224;52.422;13.024;2024-01-11T08:00:42;183.27;;;115.50;;
18196;SDS011;9224;52.422;13.024;2024-01-11T08:03:10;184.37;;;116.40;;
18196;SDS011;9224;52.422;13.024;2024-01-11T08:05:36;198.03;;;117.57;;
18196;SDS011;9224;52.422;13.024;2024-01-11T08:08:05;178.33;;;114.13;;
18196;SDS011;9224;52.422;13.024;2024-01-11T08:10:32;191.80;;;117.37;;
18196;SDS011;9224;52.422;13.024;2024-01-11T08:12:59;203.87;;;118.30;;
18196;SDS011;9224;52.422;13.024;2024-01-11T08:15:26;193.37;;;117.63;;
18196;SDS011;9224;52.422;13.024;2024-01-11T08:17:52;190.90;;;117.60;;
18196;SDS011;9224;52.422;13.024;2024-01-11T08:20:19;192.53;;;118.67;;
18196;SDS011;9224;52.422;13.024;2024-01-11T08:22:46;193.37;;;117.70;;
18196;SDS011;9224;52.422;13.024;2024-01-11T08:25:14;184.90;;;116.23;;
18196;SDS011;9224;52.422;13.024;2024-01-11T08:27:40;189.90;;;117.60;;
18196;SDS011;9224;52.422;13.024;2024-01-11T08:30:08;186.17;;;116.50;;
18196;SDS011;9224;52.422;13.024;2024-01-11T08:32:34;191.67;;;117.93;;
18196;SDS011;9224;52.422;13.024;2024-01-11T08:35:04;186.10;;;116.37;;
18196;SDS011;9224;52.422;13.024;2024-01-11T08:37:31;193.00;;;118.03;;
18196;SDS011;9224;52.422;13.024;2024-01-11T08:39:58;199.87;;;119.30;;
18196;SDS011;9224;52.422;13.024;2024-01-11T08:42:26;184.13;;;116.00;;
18196;SDS011;9224;52.422;13.024;2024-01-11T08:44:53;194.70;;;118.40;;
18196;SDS011;9224;52.422;13.024;2024-01-11T08:47:19;194.63;;;117.97;;
18196;SDS011;9224;52.422;13.024;2024-01-11T08:49:46;196.73;;;119.10;;
18196;SDS011;9224;52.422;13.024;2024-01-11T08:52:13;194.57;;;118.67;;
18196;SDS011;9224;52.422;13.024;2024-01-11T08:54:39;199.00;;;119.67;;
18196;SDS011;9224;52.422;13.024;2024-01-11T08:57:06;191.60;;;118.97;;
18196;SDS011;9224;52.422;13.024;2024-01-11T08:59:34;199.63;;;119.33;;
18196;SDS011;9224;52.422;13.024;2024-01-11T09:02:01;196.27;;;119.43;;
18196;SDS011;9224;52.422;13.024;2024-01-11T09:04:27;187.50;;;116.90;;
18196;SDS011;9224;52.422;13.024;2024-01-11T09:06:54;191.63;;;118.53;;
18196;SDS011;9224;52.422;13.024;2024-01-11T09:09:22;193.97;;;116.93;;
18196;SDS011;9224;52.422;13.024;2024-01-11T09:11:48;189.17;;;117.10;;
18196;SDS011;9224;52.422;13.024;2024-01-11T09:14:15;190.13;;;119.03;;
18196;SDS011;9224;52.422;13.024;2024-01-11T09:16:43;193.37;;;118.67;;
18196;SDS011;9224;52.422;13.024;2024-01-11T09:19:11;205.10;;;120.80;;
18196;SDS011;9224;52.422;13.024;2024-01-11T09:21:37;192.33;;;118.90;;
18196;SDS011;9224;52.422;13.024;2024-01-11T09:24:04;193.13;;;117.87;;
18196;SDS011;9224;52.422;13.024;2024-01-11T09:26:31;186.20;;;117.33;;
18196;SDS011;9224;52.422;13.024;2024-01-11T09:28:57;197.00;;;119.40;;
18196;SDS011;9224;52.422;13.024;2024-01-11T09:31:24;201.27;;;120.23;;
18196;SDS011;9224;52.422;13.024;2024-01-11T09:33:52;195.00;;;119.53;;
18196;SDS011;9224;52.422;13.024;2024-01-11T09:36:19;195.73;;;119.00;;
18196;SDS011;9224;52.422;13.024;2024-01-11T09:38:45;194.73;;;118.40;;
18196;SDS011;9224;52.422;13.024;2024-01-11T09:41:13;195.70;;;117.87;;
18196;SDS011;9224;52.422;13.024;2024-01-11T09:43:41;189.13;;;118.80;;
18196;SDS011;9224;52.422;13.024;2024-01-11T09:46:08;189.33;;;116.87;;
18196;SDS011;9224;52.422;13.024;2024-01-11T09:48:37;197.33;;;119.40;;
18196;SDS011;9224;52.422;13.024;2024-01-11T09:51:06;199.00;;;119.57;;
18196;SDS011;9224;52.422;13.024;2024-01-11T09:53:36;194.50;;;119.40;;
18196;SDS011;9224;52.422;13.024;2024-01-11T09:56:04;197.53;;;118.77;;
18196;SDS011;9224;52.422;13.024;2024-01-11T09:58:34;198.60;;;119.77;;
18196;SDS011;9224;52.422;13.024;2024-01-11T10:01:01;198.63;;;120.17;;
18196;SDS011;9224;52.422;13.024;2024-01-11T10:03:28;200.77;;;119.50;;
18196;SDS011;9224;52.422;13.024;2024-01-11T10:05:56;198.00;;;119.80;;
18196;SDS011;9224;52.422;13.024;2024-01-11T10:08:31;210.77;;;122.60;;
18196;SDS011;9224;52.422;13.024;2024-01-11T10:10:58;199.17;;;119.10;;
18196;SDS011;9224;52.422;13.024;2024-01-11T10:13:26;195.67;;;119.23;;
18196;SDS011;9224;52.422;13.024;2024-01-11T10:16:03;197.70;;;119.40;;
18196;SDS011;9224;52.422;13.024;2024-01-11T10:18:31;193.93;;;117.70;;
18196;SDS011;9224;52.422;13.024;2024-01-11T10:20:58;192.50;;;117.73;;
18196;SDS011;9224;52.422;13.024;2024-01-11T10:23:24;203.77;;;118.63;;
18196;SDS011;9224;52.422;13.024;2024-01-11T10:25:55;189.03;;;118.13;;
18196;SDS011;9224;52.422;13.024;2024-01-11T10:28:22;189.90;;;117.40;;
18196;SDS011;9224;52.422;13.024;2024-01-11T10:30:50;194.10;;;118.07;;
18196;SDS011;9224;52.422;13.024;2024-01-11T10:33:18;193.10;;;118.40;;
18196;SDS011;9224;52.422;13.024;2024-01-11T10:35:46;197.00;;;119.20;;
18196;SDS011;9224;52.422;13.024;2024-01-11T10:38:14;190.73;;;117.07;;
18196;SDS011;9224;52.422;13.024;2024-01-11T10:40:40;195.20;;;118.00;;
18196;SDS011;9224;52.422;13.024;2024-01-11T10:43:09;191.97;;;117.63;;
18196;SDS011;9224;52.422;13.024;2024-01-11T10:45:37;191.03;;;118.13;;
18196;SDS011;9224;52.422;13.024;2024-01-11T10:48:06;185.00;;;116.90;;
18196;SDS011;9224;52.422;13.024;2024-01-11T10:50:34;202.73;;;119.80;;
18196;SDS011;9224;52.422;13.024;2024-01-11T10:53:08;188.80;;;116.20;;
18196;SDS011;9224;52.422;13.024;2024-01-11T10:55:39;198.07;;;117.47;;
18196;SDS011;9224;52.422;13.024;2024-01-11T10:58:07;199.93;;;118.57;;
18196;SDS011;9224;52.422;13.024;2024-01-11T11:00:37;193.87;;;117.73;;
18196;SDS011;9224;52.422;13.024;2024-01-11T11:03:04;192.97;;;119.10;;
18196;SDS011;9224;52.422;13.024;2024-01-11T11:05:32;194.60;;;118.70;;
18196;SDS011;9224;52.422;13.024;2024-01-11T11:08:01;198.17;;;119.43;;
18196;SDS011;9224;52.422;13.024;2024-01-11T11:10:28;189.90;;;118.73;;
18196;SDS011;9224;52.422;13.024;2024-01-11T11:12:56;196.40;;;118.07;;
18196;SDS011;9224;52.422;13.024;2024-01-11T11:15:24;194.43;;;119.50;;
18196;SDS011;9224;52.422;13.024;2024-01-11T11:17:55;197.63;;;118.17;;
18196;SDS011;9224;52.422;13.024;2024-01-11T11:20:21;196.63;;;118.07;;
18196;SDS011;9224;52.422;13.024;2024-01-11T11:22:48;196.13;;;118.97;;
18196;SDS011;9224;52.422;13.024;2024-01-11T11:25:29;197.70;;;119.43;;
18196;SDS011;9224;52.422;13.024;2024-01-11T11:27:56;195.17;;;119.20;;
18196;SDS011;9224;52.422;13.024;2024-01-11T11:30:23;208.13;;;120.53;;
18196;SDS011;9224;52.422;13.024;2024-01-11T11:32:50;198.27;;;119.47;;
18196;SDS011;9224;52.422;13.024;2024-01-11T11:35:18;191.20;;;117.90;;
18196;SDS011;9224;52.422;13.024;2024-01-11T11:37:45;200.33;;;121.73;;
18196;SDS011;9224;52.422;13.024;2024-01-11T11:40:12;200.67;;;119.27;;
18196;SDS011;9224;52.422;13.024;2024-01-11T11:42:39;203.33;;;120.73;;
18196;SDS011;9224;52.422;13.024;2024-01-11T11:45:06;197.80;;;120.27;;
18196;SDS011;9224;52.422;13.024;2024-01-11T11:47:36;192.80;;;118.73;;
18196;SDS011;9224;52.422;13.024;2024-01-11T11:50:04;201.90;;;122.57;;
18196;SDS011;9224;52.422;13.024;2024-01-11T11:52:33;200.03;;;120.63;;
18196;SDS011;9224;52.422;13.024;2024-01-11T11:55:01;199.07;;;120.57;;
18196;SDS011;9224;52.422;13.024;2024-01-11T11:57:28;202.87;;;120.60;;
18196;SDS011;9224;52.422;13.024;2024-01-11T11:59:56;202.37;;;120.40;;
18196;SDS011;9224;52.422;13.024;2024-01-11T12:02:23;199.60;;;119.90;;
18196;SDS011;9224;52.422;13.024;2024-01-11T12:04:51;197.53;;;119.83;;
18196;SDS011;9224;52.422;13.024;2024-01-11T12:07:18;196.97;;;120.07;;
18196;SDS011;9224;52.422;13.024;2024-01-11T12:09:47;202.63;;;121.23;;
18196;SDS011;9224;52.422;13.024;2024-01-11T12:12:13;203.93;;;121.30;;
18196;SDS011;9224;52.422;13.024;2024-01-11T12:14:41;202.23;;;121.17;;
18196;SDS011;9224;52.422;13.024;2024-01-11T12:17:08;209.07;;;121.23;;
18196;SDS011;9224;52.422;13.024;2024-01-11T12:19:34;211.27;;;121.83;;
18196;SDS011;9224;52.422;13.024;2024-01-11T12:22:01;223.77;;;125.53;;
18196;SDS011;9224;52.422;13.024;2024-01-11T12:24:28;201.23;;;120.40;;
18196;SDS011;9224;52.422;13.024;2024-01-11T12:26:57;205.37;;;121.97;;
18196;SDS011;9224;52.422;13.024;2024-01-11T12:29:24;209.57;;;122.17;;
18196;SDS011;9224;52.422;13.024;2024-01-11T12:31:51;208.97;;;122.20;;
18196;SDS011;9224;52.422;13.024;2024-01-11T12:34:18;214.33;;;123.20;;
18196;SDS011;9224;52.422;13.024;2024-01-11T12:36:44;207.87;;;121.63;;
18196;SDS011;9224;52.422;13.024;2024-01-11T12:39:11;211.03;;;123.53;;
18196;SDS011;9224;52.422;13.024;2024-01-11T12:41:39;209.60;;;121.53;;
18196;SDS011;9224;52.422;13.024;2024-01-11T12:44:07;209.83;;;123.13;;
18196;SDS011;9224;52.422;13.024;2024-01-11T12:46:34;206.73;;;122.80;;
18196;SDS011;9224;52.422;13.024;2024-01-11T12:49:01;209.00;;;123.00;;
18196;SDS011;9224;52.422;13.024;2024-01-11T12:51:28;213.60;;;122.67;;
18196;SDS011;9224;52.422;13.024;2024-01-11T12:53:55;206.37;;;123.43;;
18196;SDS011;9224;52.422;13.024;2024-01-11T12:56:23;214.33;;;124.27;;
18196;SDS011;9224;52.422;13.024;2024-01-11T12:58:50;211.77;;;124.40;;
18196;SDS011;9224;52.422;13.024;2024-01-11T13:01:18;217.27;;;124.73;;
18196;SDS011;9224;52.422;13.024;2024-01-11T13:03:45;209.30;;;123.63;;
18196;SDS011;9224;52.422;13.024;2024-01-11T13:06:12;211.47;;;124.70;;
18196;SDS011;9224;52.422;13.024;2024-01-11T13:08:42;213.73;;;124.80;;
18196;SDS011;9224;52.422;13.024;2024-01-11T13:11:08;209.23;;;124.93;;
18196;SDS011;9224;52.422;13.024;2024-01-11T13:13:37;207.23;;;122.70;;
18196;SDS011;9224;52.422;13.024;2024-01-11T13:16:04;213.93;;;124.77;;
18196;SDS011;9224;52.422;13.024;2024-01-11T13:18:37;211.87;;;124.80;;
18196;SDS011;9224;52.422;13.024;2024-01-11T13:21:03;208.80;;;124.50;;
18196;SDS011;9224;52.422;13.024;2024-01-11T13:23:31;220.27;;;125.40;;
18196;SDS011;9224;52.422;13.024;2024-01-11T13:25:58;219.70;;;125.87;;
18196;SDS011;9224;52.422;13.024;2024-01-11T13:28:25;210.17;;;123.80;;
18196;SDS011;9224;52.422;13.024;2024-01-11T13:30:52;214.23;;;124.57;;
18196;SDS011;9224;52.422;13.024;2024-01-11T13:33:19;207.93;;;123.03;;
18196;SDS011;9224;52.422;13.024;2024-01-11T13:35:49;209.30;;;123.63;;
18196;SDS011;9224;52.422;13.024;2024-01-11T13:38:16;213.50;;;124.43;;
18196;SDS011;9224;52.422;13.024;2024-01-11T13:40:42;207.43;;;124.03;;
18196;SDS011;9224;52.422;13.024;2024-01-11T13:43:09;205.53;;;122.77;;
18196;SDS011;9224;52.422;13.024;2024-01-11T13:45:36;215.80;;;123.90;;
18196;SDS011;9224;52.422;13.024;2024-01-11T13:48:03;204.70;;;121.13;;
18196;SDS011;9224;52.422;13.024;2024-01-11T13:50:30;214.37;;;123.20;;
18196;SDS011;9224;52.422;13.024;2024-01-11T13:52:58;207.97;;;122.23;;
18196;SDS011;9224;52.422;13.024;2024-01-11T13:55:25;207.23;;;122.63;;
18196;SDS011;9224;52.422;13.024;2024-01-11T13:57:52;212.20;;;123.17;;